sensor_id;sensor_type;location;lat;lon;timestamp;pressure;altitude;pressure_sealevel;temperature;humidity
74881;BME280;63427;49.654;6.596;2022-11-15T00:02:19;99184.63;;;14.40;47.26
74881;BME280;63427;49.654;6.596;2022-11-15T00:04:44;99181.91;;;14.46;46.83
74881;BME280;63427;49.654;6.596;2022-11-15T00:07:10;99181.56;;;14.76;46.79
74881;BME280;63427;49.654;6.596;2022-11-15T00:09:35;99183.00;;;14.46;46.65
74881;BME280;63427;49.654;6.596;2022-11-15T00:12:01;99183.25;;;14.60;46.76
74881;BME280;63427;49.654;6.596;2022-11-15T00:14:26;99179.53;;;14.73;47.13
74881;BME280;63427;49.654;6.596;2022-11-15T00:16:52;99178.83;;;14.30;47.04
74881;BME280;63427;49.654;6.596;2022-11-15T00:19:17;99185.94;;;14.46;47.35
74881;BME280;63427;49.654;6.596;2022-11-15T00:21:42;99172.24;;;13.83;48.03
74881;BME280;63427;49.654;6.596;2022-11-15T00:24:07;99181.06;;;14.11;48.52
74881;BME280;63427;49.654;6.596;2022-11-15T00:26:32;99180.65;;;14.28;47.70
74881;BME280;63427;49.654;6.596;2022-11-15T00:28:58;99176.08;;;14.35;47.95
74881;BME280;63427;49.654;6.596;2022-11-15T00:31:23;99174.98;;;14.49;47.48
74881;BME280;63427;49.654;6.596;2022-11-15T00:33:49;99179.92;;;14.24;47.95
74881;BME280;63427;49.654;6.596;2022-11-15T00:36:14;99174.31;;;14.23;48.11
74881;BME280;63427;49.654;6.596;2022-11-15T00:38:41;99176.64;;;14.20;48.48
74881;BME280;63427;49.654;6.596;2022-11-15T00:41:06;99174.82;;;14.47;47.58
74881;BME280;63427;49.654;6.596;2022-11-15T00:43:30;99169.27;;;14.66;47.42
74881;BME280;63427;49.654;6.596;2022-11-15T00:45:55;99169.12;;;15.01;46.96
74881;BME280;63427;49.654;6.596;2022-11-15T00:48:20;99169.17;;;14.90;46.41
74881;BME280;63427;49.654;6.596;2022-11-15T00:50:45;99172.41;;;14.28;47.19
74881;BME280;63427;49.654;6.596;2022-11-15T00:53:11;99164.63;;;14.61;47.15
74881;BME280;63427;49.654;6.596;2022-11-15T00:55:36;99164.27;;;14.76;47.10
74881;BME280;63427;49.654;6.596;2022-11-15T00:58:01;99159.06;;;14.10;46.79
74881;BME280;63427;49.654;6.596;2022-11-15T01:00:27;99167.52;;;14.24;47.53
74881;BME280;63427;49.654;6.596;2022-11-15T01:02:52;99164.22;;;14.08;47.29
74881;BME280;63427;49.654;6.596;2022-11-15T01:05:17;99166.83;;;14.26;47.03
74881;BME280;63427;49.654;6.596;2022-11-15T01:07:43;99169.06;;;14.31;47.77
74881;BME280;63427;49.654;6.596;2022-11-15T01:10:09;99170.45;;;14.35;47.14
74881;BME280;63427;49.654;6.596;2022-11-15T01:12:34;99163.51;;;14.35;46.72
74881;BME280;63427;49.654;6.596;2022-11-15T01:14:59;99165.93;;;13.76;47.34
74881;BME280;63427;49.654;6.596;2022-11-15T01:17:24;99164.98;;;14.29;47.55
74881;BME280;63427;49.654;6.596;2022-11-15T01:19:50;99161.03;;;14.51;46.72
74881;BME280;63427;49.654;6.596;2022-11-15T01:22:15;99166.23;;;14.47;46.47
74881;BME280;63427;49.654;6.596;2022-11-15T01:24:40;99163.52;;;14.28;47.28
74881;BME280;63427;49.654;6.596;2022-11-15T01:27:05;99161.44;;;14.57;46.72
74881;BME280;63427;49.654;6.596;2022-11-15T01:29:31;99165.53;;;13.52;48.79
74881;BME280;63427;49.654;6.596;2022-11-15T01:31:56;99164.48;;;14.00;47.00
74881;BME280;63427;49.654;6.596;2022-11-15T01:34:22;99164.71;;;14.31;46.25
74881;BME280;63427;49.654;6.596;2022-11-15T01:36:47;99162.94;;;14.22;46.46
74881;BME280;63427;49.654;6.596;2022-11-15T01:39:12;99161.23;;;14.26;46.82
74881;BME280;63427;49.654;6.596;2022-11-15T01:41:38;99164.18;;;14.37;46.28
74881;BME280;63427;49.654;6.596;2022-11-15T01:46:31;99163.35;;;14.89;45.99
74881;BME280;63427;49.654;6.596;2022-11-15T01:48:56;99165.61;;;13.44;47.34
74881;BME280;63427;49.654;6.596;2022-11-15T01:51:21;99166.53;;;14.13;46.72
74881;BME280;63427;49.654;6.596;2022-11-15T01:53:47;99155.42;;;13.74;47.07
74881;BME280;63427;49.654;6.596;2022-11-15T01:56:12;99152.60;;;14.20;46.88
74881;BME280;63427;49.654;6.596;2022-11-15T01:58:37;99157.75;;;14.31;47.14
74881;BME280;63427;49.654;6.596;2022-11-15T02:01:01;99153.02;;;14.55;46.24
74881;BME280;63427;49.654;6.596;2022-11-15T02:03:34;99149.01;;;14.53;46.27
74881;BME280;63427;49.654;6.596;2022-11-15T02:05:53;99151.18;;;14.43;45.90
74881;BME280;63427;49.654;6.596;2022-11-15T02:08:18;99147.76;;;14.55;45.63
74881;BME280;63427;49.654;6.596;2022-11-15T02:10:43;99143.59;;;14.49;45.67
74881;BME280;63427;49.654;6.596;2022-11-15T02:13:08;99142.53;;;14.30;45.99
74881;BME280;63427;49.654;6.596;2022-11-15T02:15:38;99144.63;;;14.59;45.85
74881;BME280;63427;49.654;6.596;2022-11-15T02:18:07;99146.06;;;14.79;45.85
74881;BME280;63427;49.654;6.596;2022-11-15T02:20:39;99146.84;;;14.53;46.13
74881;BME280;63427;49.654;6.596;2022-11-15T02:23:04;99145.09;;;14.43;46.36
74881;BME280;63427;49.654;6.596;2022-11-15T02:25:30;99142.05;;;14.33;46.26
74881;BME280;63427;49.654;6.596;2022-11-15T02:27:54;99142.74;;;14.49;46.03
74881;BME280;63427;49.654;6.596;2022-11-15T02:30:18;99138.70;;;13.94;46.95
74881;BME280;63427;49.654;6.596;2022-11-15T02:32:34;99138.07;;;14.56;45.70
74881;BME280;63427;49.654;6.596;2022-11-15T02:35:01;99144.00;;;14.32;45.63
74881;BME280;63427;49.654;6.596;2022-11-15T02:37:29;99135.24;;;14.78;45.12
74881;BME280;63427;49.654;6.596;2022-11-15T02:39:51;99140.22;;;14.51;45.51
74881;BME280;63427;49.654;6.596;2022-11-15T02:42:16;99137.09;;;14.11;45.40
74881;BME280;63427;49.654;6.596;2022-11-15T02:44:41;99134.23;;;14.17;45.88
74881;BME280;63427;49.654;6.596;2022-11-15T02:47:06;99138.26;;;14.30;45.89
74881;BME280;63427;49.654;6.596;2022-11-15T02:49:32;99136.09;;;14.32;45.59
74881;BME280;63427;49.654;6.596;2022-11-15T02:51:55;99136.62;;;14.45;45.56
74881;BME280;63427;49.654;6.596;2022-11-15T02:54:22;99134.30;;;14.22;45.62
74881;BME280;63427;49.654;6.596;2022-11-15T02:56:46;99134.89;;;14.40;45.48
74881;BME280;63427;49.654;6.596;2022-11-15T02:59:22;99138.24;;;14.34;45.46
74881;BME280;63427;49.654;6.596;2022-11-15T03:01:46;99134.43;;;14.37;45.05
74881;BME280;63427;49.654;6.596;2022-11-15T03:04:09;99132.51;;;14.87;44.78
74881;BME280;63427;49.654;6.596;2022-11-15T03:06:32;99129.43;;;14.66;45.01
74881;BME280;63427;49.654;6.596;2022-11-15T03:09:01;99124.59;;;14.48;44.71
74881;BME280;63427;49.654;6.596;2022-11-15T03:11:20;99127.01;;;14.11;45.35
74881;BME280;63427;49.654;6.596;2022-11-15T03:13:47;99124.23;;;13.81;45.45
74881;BME280;63427;49.654;6.596;2022-11-15T03:16:11;99113.35;;;13.74;45.89
74881;BME280;63427;49.654;6.596;2022-11-15T03:18:36;99110.82;;;14.31;45.19
74881;BME280;63427;49.654;6.596;2022-11-15T03:21:02;99105.12;;;14.29;44.61
74881;BME280;63427;49.654;6.596;2022-11-15T03:23:26;99107.13;;;14.10;44.45
74881;BME280;63427;49.654;6.596;2022-11-15T03:25:51;99104.85;;;13.96;44.63
74881;BME280;63427;49.654;6.596;2022-11-15T03:28:20;99104.43;;;14.38;44.81
74881;BME280;63427;49.654;6.596;2022-11-15T03:30:42;99102.40;;;14.44;44.64
74881;BME280;63427;49.654;6.596;2022-11-15T03:33:07;99102.68;;;13.89;44.65
74881;BME280;63427;49.654;6.596;2022-11-15T03:35:35;99099.53;;;14.40;44.83
74881;BME280;63427;49.654;6.596;2022-11-15T03:38:00;99095.44;;;14.33;44.90
74881;BME280;63427;49.654;6.596;2022-11-15T03:40:31;99091.72;;;14.03;44.93
74881;BME280;63427;49.654;6.596;2022-11-15T03:42:54;99092.74;;;13.87;45.51
74881;BME280;63427;49.654;6.596;2022-11-15T03:45:18;99092.95;;;13.97;45.27
74881;BME280;63427;49.654;6.596;2022-11-15T03:47:41;99097.36;;;14.03;45.17
74881;BME280;63427;49.654;6.596;2022-11-15T03:50:08;99096.00;;;14.03;44.96
74881;BME280;63427;49.654;6.596;2022-11-15T03:52:32;99099.82;;;13.71;45.65
74881;BME280;63427;49.654;6.596;2022-11-15T03:54:56;99098.01;;;13.81;45.43
74881;BME280;63427;49.654;6.596;2022-11-15T03:57:21;99094.25;;;13.71;45.43
74881;BME280;63427;49.654;6.596;2022-11-15T03:59:46;99099.71;;;13.86;45.15
74881;BME280;63427;49.654;6.596;2022-11-15T04:02:12;99099.27;;;13.96;45.03
74881;BME280;63427;49.654;6.596;2022-11-15T04:04:37;99105.36;;;13.61;45.66
74881;BME280;63427;49.654;6.596;2022-11-15T04:07:04;99107.15;;;13.90;46.15
74881;BME280;63427;49.654;6.596;2022-11-15T04:09:28;99108.43;;;14.13;45.79
74881;BME280;63427;49.654;6.596;2022-11-15T04:11:54;99106.08;;;13.62;45.73
74881;BME280;63427;49.654;6.596;2022-11-15T04:14:19;99104.39;;;13.28;46.16
74881;BME280;63427;49.654;6.596;2022-11-15T04:16:44;99099.80;;;13.03;46.94
74881;BME280;63427;49.654;6.596;2022-11-15T04:19:10;99098.53;;;13.49;45.95
74881;BME280;63427;49.654;6.596;2022-11-15T04:21:35;99093.42;;;13.75;45.40
74881;BME280;63427;49.654;6.596;2022-11-15T04:24:00;99096.71;;;13.81;45.04
74881;BME280;63427;49.654;6.596;2022-11-15T04:26:26;99099.03;;;14.14;44.47
74881;BME280;63427;49.654;6.596;2022-11-15T04:28:51;99095.90;;;14.03;44.64
74881;BME280;63427;49.654;6.596;2022-11-15T04:31:17;99098.82;;;13.68;44.68
74881;BME280;63427;49.654;6.596;2022-11-15T04:33:42;99098.66;;;13.64;45.36
74881;BME280;63427;49.654;6.596;2022-11-15T04:36:08;99094.63;;;13.82;44.94
74881;BME280;63427;49.654;6.596;2022-11-15T04:38:34;99094.38;;;13.50;45.21
74881;BME280;63427;49.654;6.596;2022-11-15T04:40:58;99098.81;;;13.68;45.20
74881;BME280;63427;49.654;6.596;2022-11-15T04:43:24;99095.94;;;13.75;44.95
74881;BME280;63427;49.654;6.596;2022-11-15T04:45:49;99094.34;;;13.67;45.08
74881;BME280;63427;49.654;6.596;2022-11-15T04:48:15;99095.70;;;13.90;45.04
74881;BME280;63427;49.654;6.596;2022-11-15T04:50:40;99096.59;;;13.77;44.94
74881;BME280;63427;49.654;6.596;2022-11-15T04:53:06;99099.42;;;13.88;44.83
74881;BME280;63427;49.654;6.596;2022-11-15T04:55:31;99099.40;;;13.36;45.69
74881;BME280;63427;49.654;6.596;2022-11-15T04:57:58;99106.70;;;14.16;44.67
74881;BME280;63427;49.654;6.596;2022-11-15T05:00:57;99105.28;;;13.62;44.77
74881;BME280;63427;49.654;6.596;2022-11-15T05:02:47;99106.19;;;14.01;44.50
74881;BME280;63427;49.654;6.596;2022-11-15T05:05:13;99106.53;;;14.14;44.26
74881;BME280;63427;49.654;6.596;2022-11-15T05:07:38;99108.51;;;13.97;44.58
74881;BME280;63427;49.654;6.596;2022-11-15T05:10:04;99111.97;;;14.00;44.49
74881;BME280;63427;49.654;6.596;2022-11-15T05:12:29;99113.55;;;13.75;44.91
74881;BME280;63427;49.654;6.596;2022-11-15T05:14:55;99115.82;;;13.92;44.58
74881;BME280;63427;49.654;6.596;2022-11-15T05:17:20;99115.14;;;14.05;44.31
74881;BME280;63427;49.654;6.596;2022-11-15T05:19:45;99112.08;;;13.53;45.19
74881;BME280;63427;49.654;6.596;2022-11-15T05:22:11;99110.56;;;14.20;44.84
74881;BME280;63427;49.654;6.596;2022-11-15T05:24:36;99110.82;;;13.65;44.98
74881;BME280;63427;49.654;6.596;2022-11-15T05:27:02;99109.12;;;14.01;44.22
74881;BME280;63427;49.654;6.596;2022-11-15T05:29:27;99112.04;;;14.04;44.17
74881;BME280;63427;49.654;6.596;2022-11-15T05:31:53;99110.24;;;13.46;45.01
74881;BME280;63427;49.654;6.596;2022-11-15T05:34:18;99111.61;;;13.31;45.69
74881;BME280;63427;49.654;6.596;2022-11-15T05:36:44;99109.78;;;13.42;45.39
74881;BME280;63427;49.654;6.596;2022-11-15T05:39:09;99109.08;;;13.28;45.55
74881;BME280;63427;49.654;6.596;2022-11-15T05:41:37;99105.85;;;13.38;45.66
74881;BME280;63427;49.654;6.596;2022-11-15T05:44:01;99098.92;;;12.62;44.88
74881;BME280;63427;49.654;6.596;2022-11-15T05:46:26;99098.54;;;13.34;44.48
74881;BME280;63427;49.654;6.596;2022-11-15T05:48:52;99102.39;;;13.85;44.63
74881;BME280;63427;49.654;6.596;2022-11-15T05:51:17;99104.15;;;13.98;44.62
74881;BME280;63427;49.654;6.596;2022-11-15T05:53:42;99104.19;;;13.59;44.94
74881;BME280;63427;49.654;6.596;2022-11-15T05:56:09;99103.75;;;13.46;44.63
74881;BME280;63427;49.654;6.596;2022-11-15T05:58:33;99099.97;;;13.91;44.41
74881;BME280;63427;49.654;6.596;2022-11-15T06:00:59;99099.12;;;13.53;44.33
74881;BME280;63427;49.654;6.596;2022-11-15T06:03:24;99103.61;;;13.70;43.84
74881;BME280;63427;49.654;6.596;2022-11-15T06:05:49;99104.48;;;13.59;44.17
74881;BME280;63427;49.654;6.596;2022-11-15T06:08:15;99105.56;;;12.98;44.77
74881;BME280;63427;49.654;6.596;2022-11-15T06:10:40;99109.43;;;13.31;44.64
74881;BME280;63427;49.654;6.596;2022-11-15T06:13:06;99105.93;;;13.37;44.57
74881;BME280;63427;49.654;6.596;2022-11-15T06:15:32;99105.21;;;12.77;44.89
74881;BME280;63427;49.654;6.596;2022-11-15T06:17:57;99102.46;;;12.88;44.84
74881;BME280;63427;49.654;6.596;2022-11-15T06:20:22;99106.74;;;13.48;44.13
74881;BME280;63427;49.654;6.596;2022-11-15T06:22:48;99110.01;;;13.18;43.64
74881;BME280;63427;49.654;6.596;2022-11-15T06:25:15;99111.74;;;13.13;43.36
74881;BME280;63427;49.654;6.596;2022-11-15T06:27:39;99113.08;;;13.52;43.10
74881;BME280;63427;49.654;6.596;2022-11-15T06:30:05;99117.17;;;13.69;43.08
74881;BME280;63427;49.654;6.596;2022-11-15T06:32:30;99114.79;;;13.55;42.94
74881;BME280;63427;49.654;6.596;2022-11-15T06:34:55;99115.58;;;13.63;42.65
74881;BME280;63427;49.654;6.596;2022-11-15T06:37:20;99114.83;;;13.36;43.01
74881;BME280;63427;49.654;6.596;2022-11-15T06:39:46;99115.54;;;12.90;43.15
74881;BME280;63427;49.654;6.596;2022-11-15T06:42:11;99116.83;;;13.50;42.74
74881;BME280;63427;49.654;6.596;2022-11-15T06:44:37;99115.86;;;13.19;43.23
74881;BME280;63427;49.654;6.596;2022-11-15T06:47:03;99116.10;;;13.49;42.95
74881;BME280;63427;49.654;6.596;2022-11-15T06:49:28;99114.14;;;12.90;43.42
74881;BME280;63427;49.654;6.596;2022-11-15T06:51:53;99116.15;;;13.23;43.55
74881;BME280;63427;49.654;6.596;2022-11-15T06:54:19;99120.00;;;13.34;43.72
74881;BME280;63427;49.654;6.596;2022-11-15T06:56:45;99125.79;;;12.99;43.39
74881;BME280;63427;49.654;6.596;2022-11-15T06:59:10;99122.75;;;12.98;44.04
74881;BME280;63427;49.654;6.596;2022-11-15T07:01:35;99123.75;;;13.45;43.49
74881;BME280;63427;49.654;6.596;2022-11-15T07:04:01;99121.23;;;13.41;43.18
74881;BME280;63427;49.654;6.596;2022-11-15T07:06:26;99120.51;;;13.85;42.89
74881;BME280;63427;49.654;6.596;2022-11-15T07:08:52;99124.02;;;13.38;43.35
74881;BME280;63427;49.654;6.596;2022-11-15T07:11:17;99125.14;;;13.27;43.20
74881;BME280;63427;49.654;6.596;2022-11-15T07:13:43;99125.00;;;13.33;43.04
74881;BME280;63427;49.654;6.596;2022-11-15T07:16:09;99126.91;;;13.68;42.95
74881;BME280;63427;49.654;6.596;2022-11-15T07:18:34;99126.07;;;13.61;43.19
74881;BME280;63427;49.654;6.596;2022-11-15T07:21:01;99128.52;;;13.49;43.04
74881;BME280;63427;49.654;6.596;2022-11-15T07:23:25;99128.42;;;13.47;43.13
74881;BME280;63427;49.654;6.596;2022-11-15T07:25:50;99129.54;;;13.52;42.87
74881;BME280;63427;49.654;6.596;2022-11-15T07:28:16;99135.35;;;13.50;43.04
74881;BME280;63427;49.654;6.596;2022-11-15T07:30:41;99134.24;;;13.66;42.92
74881;BME280;63427;49.654;6.596;2022-11-15T07:33:07;99132.14;;;13.47;42.83
74881;BME280;63427;49.654;6.596;2022-11-15T07:35:32;99131.67;;;13.63;42.52
74881;BME280;63427;49.654;6.596;2022-11-15T07:37:59;99129.23;;;13.43;42.71
74881;BME280;63427;49.654;6.596;2022-11-15T07:40:24;99130.77;;;13.68;42.70
74881;BME280;63427;49.654;6.596;2022-11-15T07:42:49;99127.63;;;13.15;42.39
74881;BME280;63427;49.654;6.596;2022-11-15T07:45:14;99128.95;;;13.85;42.33
74881;BME280;63427;49.654;6.596;2022-11-15T07:47:39;99121.86;;;13.99;42.19
74881;BME280;63427;49.654;6.596;2022-11-15T07:50:06;99126.30;;;14.17;42.09
74881;BME280;63427;49.654;6.596;2022-11-15T07:52:30;99123.33;;;13.87;42.01
74881;BME280;63427;49.654;6.596;2022-11-15T07:54:56;99127.02;;;13.75;42.18
74881;BME280;63427;49.654;6.596;2022-11-15T07:57:21;99123.86;;;14.05;41.80
74881;BME280;63427;49.654;6.596;2022-11-15T07:59:47;99121.08;;;14.04;42.09
74881;BME280;63427;49.654;6.596;2022-11-15T08:02:12;99126.48;;;14.03;41.91
74881;BME280;63427;49.654;6.596;2022-11-15T08:04:38;99119.84;;;14.08;42.03
74881;BME280;63427;49.654;6.596;2022-11-15T08:07:03;99114.57;;;14.55;41.72
74881;BME280;63427;49.654;6.596;2022-11-15T08:09:29;99111.30;;;14.44;41.59
74881;BME280;63427;49.654;6.596;2022-11-15T08:11:54;99109.17;;;14.45;41.22
74881;BME280;63427;49.654;6.596;2022-11-15T08:14:19;99110.48;;;14.33;41.17
74881;BME280;63427;49.654;6.596;2022-11-15T08:16:45;99105.74;;;14.44;40.98
74881;BME280;63427;49.654;6.596;2022-11-15T08:19:10;99102.62;;;14.34;41.32
74881;BME280;63427;49.654;6.596;2022-11-15T08:21:36;99100.88;;;14.61;41.44
74881;BME280;63427;49.654;6.596;2022-11-15T08:24:01;99099.45;;;14.35;41.31
74881;BME280;63427;49.654;6.596;2022-11-15T08:26:27;99094.78;;;14.31;41.65
74881;BME280;63427;49.654;6.596;2022-11-15T08:28:52;99095.99;;;14.45;41.58
74881;BME280;63427;49.654;6.596;2022-11-15T08:31:18;99095.86;;;14.26;41.37
74881;BME280;63427;49.654;6.596;2022-11-15T08:33:44;99094.51;;;14.50;41.20
74881;BME280;63427;49.654;6.596;2022-11-15T08:36:13;99097.04;;;14.89;41.36
74881;BME280;63427;49.654;6.596;2022-11-15T08:38:34;99097.53;;;14.50;41.35
74881;BME280;63427;49.654;6.596;2022-11-15T08:41:01;99095.86;;;14.39;41.55
74881;BME280;63427;49.654;6.596;2022-11-15T08:43:25;99091.56;;;14.63;41.29
74881;BME280;63427;49.654;6.596;2022-11-15T08:45:51;99084.14;;;14.84;41.02
74881;BME280;63427;49.654;6.596;2022-11-15T08:48:16;99083.89;;;14.81;41.43
74881;BME280;63427;49.654;6.596;2022-11-15T08:50:41;99077.75;;;14.99;40.89
74881;BME280;63427;49.654;6.596;2022-11-15T08:53:07;99078.98;;;15.31;40.71
74881;BME280;63427;49.654;6.596;2022-11-15T08:55:32;99081.59;;;15.33;41.18
74881;BME280;63427;49.654;6.596;2022-11-15T08:57:57;99082.22;;;15.54;40.69
74881;BME280;63427;49.654;6.596;2022-11-15T09:00:23;99080.66;;;15.31;40.69
74881;BME280;63427;49.654;6.596;2022-11-15T09:02:48;99081.09;;;15.38;40.53
74881;BME280;63427;49.654;6.596;2022-11-15T09:05:14;99080.43;;;15.62;40.42
74881;BME280;63427;49.654;6.596;2022-11-15T09:07:39;99080.58;;;15.17;40.42
74881;BME280;63427;49.654;6.596;2022-11-15T09:10:05;99076.18;;;15.39;40.26
74881;BME280;63427;49.654;6.596;2022-11-15T09:12:29;99073.89;;;15.44;40.53
74881;BME280;63427;49.654;6.596;2022-11-15T09:14:55;99071.50;;;15.51;40.58
74881;BME280;63427;49.654;6.596;2022-11-15T09:17:21;99064.42;;;15.33;40.43
74881;BME280;63427;49.654;6.596;2022-11-15T09:19:46;99061.49;;;15.71;40.39
74881;BME280;63427;49.654;6.596;2022-11-15T09:22:12;99051.63;;;15.70;39.91
74881;BME280;63427;49.654;6.596;2022-11-15T09:24:37;99043.58;;;15.86;40.11
74881;BME280;63427;49.654;6.596;2022-11-15T09:27:02;99032.88;;;16.23;39.00
74881;BME280;63427;49.654;6.596;2022-11-15T09:29:28;99029.26;;;16.41;39.79
74881;BME280;63427;49.654;6.596;2022-11-15T09:31:54;99025.88;;;16.05;39.17
74881;BME280;63427;49.654;6.596;2022-11-15T09:34:19;99024.67;;;16.18;38.97
74881;BME280;63427;49.654;6.596;2022-11-15T09:36:45;99022.09;;;16.61;38.73
74881;BME280;63427;49.654;6.596;2022-11-15T09:39:10;99020.32;;;16.72;38.68
74881;BME280;63427;49.654;6.596;2022-11-15T09:41:47;99025.29;;;17.05;38.41
74881;BME280;63427;49.654;6.596;2022-11-15T09:44:10;99020.17;;;17.29;37.43
74881;BME280;63427;49.654;6.596;2022-11-15T09:46:32;99020.68;;;17.03;37.55
74881;BME280;63427;49.654;6.596;2022-11-15T09:48:53;99014.94;;;17.30;36.84
74881;BME280;63427;49.654;6.596;2022-11-15T09:51:23;99013.80;;;17.08;37.38
74881;BME280;63427;49.654;6.596;2022-11-15T09:53:47;99009.26;;;17.35;36.93
74881;BME280;63427;49.654;6.596;2022-11-15T09:56:14;99007.39;;;17.62;36.99
74881;BME280;63427;49.654;6.596;2022-11-15T09:58:38;99003.53;;;17.94;36.16
74881;BME280;63427;49.654;6.596;2022-11-15T10:01:00;99004.40;;;17.02;35.94
74881;BME280;63427;49.654;6.596;2022-11-15T10:03:27;99011.20;;;16.68;36.47
74881;BME280;63427;49.654;6.596;2022-11-15T10:05:50;99009.88;;;17.38;36.84
74881;BME280;63427;49.654;6.596;2022-11-15T10:08:24;99005.93;;;18.02;35.86
74881;BME280;63427;49.654;6.596;2022-11-15T10:10:40;99007.27;;;17.62;35.58
74881;BME280;63427;49.654;6.596;2022-11-15T10:13:04;99003.57;;;18.05;35.41
74881;BME280;63427;49.654;6.596;2022-11-15T10:15:29;98992.76;;;18.05;35.29
74881;BME280;63427;49.654;6.596;2022-11-15T10:18:06;98988.29;;;18.02;35.67
74881;BME280;63427;49.654;6.596;2022-11-15T10:20:22;98980.90;;;17.97;34.69
74881;BME280;63427;49.654;6.596;2022-11-15T10:22:47;98978.99;;;16.22;36.22
74881;BME280;63427;49.654;6.596;2022-11-15T10:25:17;98983.28;;;17.49;35.89
74881;BME280;63427;49.654;6.596;2022-11-15T10:27:36;98973.43;;;17.18;35.90
74881;BME280;63427;49.654;6.596;2022-11-15T10:30:06;98974.60;;;17.44;35.34
74881;BME280;63427;49.654;6.596;2022-11-15T10:32:26;98965.80;;;18.00;34.87
74881;BME280;63427;49.654;6.596;2022-11-15T10:34:52;98963.94;;;18.11;34.90
74881;BME280;63427;49.654;6.596;2022-11-15T10:37:27;98954.41;;;18.27;34.18
74881;BME280;63427;49.654;6.596;2022-11-15T10:39:42;98950.15;;;18.49;34.59
74881;BME280;63427;49.654;6.596;2022-11-15T10:42:17;98937.60;;;19.10;33.35
74881;BME280;63427;49.654;6.596;2022-11-15T10:44:41;98936.09;;;19.45;33.03
74881;BME280;63427;49.654;6.596;2022-11-15T10:47:21;98929.79;;;19.59;32.38
74881;BME280;63427;49.654;6.596;2022-11-15T10:49:24;98925.49;;;19.73;31.58
74881;BME280;63427;49.654;6.596;2022-11-15T10:51:51;98916.22;;;20.08;31.47
74881;BME280;63427;49.654;6.596;2022-11-15T10:54:22;98909.98;;;20.27;30.76
74881;BME280;63427;49.654;6.596;2022-11-15T10:56:40;98905.03;;;20.46;31.20
74881;BME280;63427;49.654;6.596;2022-11-15T10:59:04;98901.93;;;21.11;29.93
74881;BME280;63427;49.654;6.596;2022-11-15T11:01:29;98899.17;;;21.08;29.94
74881;BME280;63427;49.654;6.596;2022-11-15T11:03:59;98896.77;;;21.55;28.62
74881;BME280;63427;49.654;6.596;2022-11-15T11:06:19;98890.96;;;21.95;29.30
74881;BME280;63427;49.654;6.596;2022-11-15T11:08:54;98895.70;;;20.61;29.15
74881;BME280;63427;49.654;6.596;2022-11-15T11:11:10;98901.27;;;21.70;28.49
74881;BME280;63427;49.654;6.596;2022-11-15T11:13:37;98886.63;;;20.32;28.71
74881;BME280;63427;49.654;6.596;2022-11-15T11:16:18;98890.73;;;21.59;29.38
74881;BME280;63427;49.654;6.596;2022-11-15T11:18:29;98886.12;;;22.58;28.16
74881;BME280;63427;49.654;6.596;2022-11-15T11:20:53;98881.36;;;22.65;26.53
74881;BME280;63427;49.654;6.596;2022-11-15T11:23:30;98874.45;;;22.85;26.97
74881;BME280;63427;49.654;6.596;2022-11-15T11:25:43;98872.61;;;22.73;26.50
74881;BME280;63427;49.654;6.596;2022-11-15T11:28:19;98863.49;;;22.90;26.86
74881;BME280;63427;49.654;6.596;2022-11-15T11:30:39;98856.97;;;22.54;26.09
74881;BME280;63427;49.654;6.596;2022-11-15T11:33:05;98861.11;;;21.06;27.72
74881;BME280;63427;49.654;6.596;2022-11-15T11:35:26;98845.39;;;21.41;27.42
74881;BME280;63427;49.654;6.596;2022-11-15T11:37:49;98846.24;;;21.54;27.51
74881;BME280;63427;49.654;6.596;2022-11-15T11:40:19;98842.72;;;20.59;28.56
74881;BME280;63427;49.654;6.596;2022-11-15T11:42:42;98835.40;;;20.77;28.30
74881;BME280;63427;49.654;6.596;2022-11-15T11:45:10;98830.14;;;21.57;28.92
74881;BME280;63427;49.654;6.596;2022-11-15T11:47:31;98824.17;;;21.89;28.17
74881;BME280;63427;49.654;6.596;2022-11-15T11:49:53;98817.70;;;22.35;28.30
74881;BME280;63427;49.654;6.596;2022-11-15T11:52:20;98817.68;;;22.14;27.63
74881;BME280;63427;49.654;6.596;2022-11-15T11:54:48;98815.53;;;22.43;27.51
74881;BME280;63427;49.654;6.596;2022-11-15T11:57:12;98814.17;;;22.49;28.25
74881;BME280;63427;49.654;6.596;2022-11-15T11:59:36;98804.24;;;22.10;27.61
74881;BME280;63427;49.654;6.596;2022-11-15T12:01:57;98804.27;;;21.84;28.77
74881;BME280;63427;49.654;6.596;2022-11-15T12:04:29;98796.07;;;22.04;27.75
74881;BME280;63427;49.654;6.596;2022-11-15T12:06:50;98791.44;;;21.64;28.39
74881;BME280;63427;49.654;6.596;2022-11-15T12:09:15;98784.38;;;22.16;28.34
74881;BME280;63427;49.654;6.596;2022-11-15T12:11:46;98776.73;;;21.65;28.66
74881;BME280;63427;49.654;6.596;2022-11-15T12:14:05;98776.60;;;22.28;28.81
74881;BME280;63427;49.654;6.596;2022-11-15T12:16:28;98762.20;;;21.02;29.15
74881;BME280;63427;49.654;6.596;2022-11-15T12:18:53;98762.85;;;21.86;29.01
74881;BME280;63427;49.654;6.596;2022-11-15T12:21:22;98764.70;;;20.77;29.78
74881;BME280;63427;49.654;6.596;2022-11-15T12:23:46;98754.26;;;21.13;30.56
74881;BME280;63427;49.654;6.596;2022-11-15T12:26:11;98752.68;;;21.74;28.75
74881;BME280;63427;49.654;6.596;2022-11-15T12:28:38;98745.35;;;22.54;28.30
74881;BME280;63427;49.654;6.596;2022-11-15T12:31:03;98747.13;;;22.19;28.04
74881;BME280;63427;49.654;6.596;2022-11-15T12:33:31;98729.85;;;22.80;27.83
74881;BME280;63427;49.654;6.596;2022-11-15T12:35:57;98719.48;;;22.84;27.79
74881;BME280;63427;49.654;6.596;2022-11-15T12:45:31;98718.88;;;22.98;26.67
74881;BME280;63427;49.654;6.596;2022-11-15T12:47:57;98714.94;;;23.07;27.22
74881;BME280;63427;49.654;6.596;2022-11-15T12:55:29;98715.25;;;22.34;26.95
74881;BME280;63427;49.654;6.596;2022-11-15T12:57:41;98714.34;;;22.32;27.88
74881;BME280;63427;49.654;6.596;2022-11-15T13:00:02;98710.11;;;22.46;28.14
74881;BME280;63427;49.654;6.596;2022-11-15T13:02:26;98696.26;;;23.03;27.61
74881;BME280;63427;49.654;6.596;2022-11-15T13:04:51;98692.94;;;22.48;27.26